sensor_id;sensor_type;location;lat;lon;timestamp;P1;durP1;ratioP1;P2;durP2;ratioP2
48727;SDS011;34527;45.618;5.130;2022-10-31T00:02:08;17.33;;;9.32;;
48727;SDS011;34527;45.618;5.130;2022-10-31T00:04:34;23.65;;;9.90;;
48727;SDS011;34527;45.618;5.130;2022-10-31T00:07:00;17.35;;;9.38;;
48727;SDS011;34527;45.618;5.130;2022-10-31T00:09:26;14.80;;;8.85;;
48727;SDS011;34527;45.618;5.130;2022-10-31T00:11:52;18.63;;;8.82;;
48727;SDS011;34527;45.618;5.130;2022-10-31T00:14:17;17.00;;;9.00;;
48727;SDS011;34527;45.618;5.130;2022-10-31T00:16:43;17.75;;;9.43;;
48727;SDS011;34527;45.618;5.130;2022-10-31T00:19:09;17.15;;;9.88;;
48727;SDS011;34527;45.618;5.130;2022-10-31T00:21:35;17.67;;;9.65;;
48727;SDS011;34527;45.618;5.130;2022-10-31T00:24:01;17.13;;;9.30;;
48727;SDS011;34527;45.618;5.130;2022-10-31T00:26:28;20.40;;;9.20;;
48727;SDS011;34527;45.618;5.130;2022-10-31T00:28:55;23.83;;;10.52;;
48727;SDS011;34527;45.618;5.130;2022-10-31T00:31:21;17.65;;;9.63;;
48727;SDS011;34527;45.618;5.130;2022-10-31T00:33:47;23.33;;;10.05;;
48727;SDS011;34527;45.618;5.130;2022-10-31T00:36:14;17.05;;;9.05;;
48727;SDS011;34527;45.618;5.130;2022-10-31T00:38:42;22.95;;;10.85;;
48727;SDS011;34527;45.618;5.130;2022-10-31T00:41:09;18.15;;;9.73;;
48727;SDS011;34527;45.618;5.130;2022-10-31T00:43:35;19.40;;;9.70;;
48727;SDS011;34527;45.618;5.130;2022-10-31T00:46:01;22.10;;;10.27;;
48727;SDS011;34527;45.618;5.130;2022-10-31T00:48:27;20.63;;;10.07;;
48727;SDS011;34527;45.618;5.130;2022-10-31T00:50:53;23.13;;;10.75;;
48727;SDS011;34527;45.618;5.130;2022-10-31T00:53:19;18.45;;;10.20;;
48727;SDS011;34527;45.618;5.130;2022-10-31T00:55:45;20.92;;;10.70;;
48727;SDS011;34527;45.618;5.130;2022-10-31T00:58:11;22.63;;;9.93;;
48727;SDS011;34527;45.618;5.130;2022-10-31T01:00:37;17.40;;;9.57;;
48727;SDS011;34527;45.618;5.130;2022-10-31T01:03:03;19.67;;;9.57;;
48727;SDS011;34527;45.618;5.130;2022-10-31T01:05:29;18.88;;;10.27;;
48727;SDS011;34527;45.618;5.130;2022-10-31T01:07:55;22.52;;;10.75;;
48727;SDS011;34527;45.618;5.130;2022-10-31T01:10:21;16.30;;;9.80;;
48727;SDS011;34527;45.618;5.130;2022-10-31T01:12:48;19.48;;;9.10;;
48727;SDS011;34527;45.618;5.130;2022-10-31T01:15:16;21.75;;;10.43;;
48727;SDS011;34527;45.618;5.130;2022-10-31T01:17:44;18.98;;;9.60;;
48727;SDS011;34527;45.618;5.130;2022-10-31T01:20:10;18.23;;;10.02;;
48727;SDS011;34527;45.618;5.130;2022-10-31T01:22:38;18.88;;;9.18;;
48727;SDS011;34527;45.618;5.130;2022-10-31T01:25:04;24.48;;;10.40;;
48727;SDS011;34527;45.618;5.130;2022-10-31T01:27:30;26.10;;;10.43;;
48727;SDS011;34527;45.618;5.130;2022-10-31T01:29:57;24.50;;;9.68;;
48727;SDS011;34527;45.618;5.130;2022-10-31T01:32:23;23.45;;;9.13;;
48727;SDS011;34527;45.618;5.130;2022-10-31T01:34:49;27.15;;;9.30;;
48727;SDS011;34527;45.618;5.130;2022-10-31T01:37:15;20.65;;;8.85;;
48727;SDS011;34527;45.618;5.130;2022-10-31T01:39:41;25.13;;;8.95;;
48727;SDS011;34527;45.618;5.130;2022-10-31T01:42:09;22.50;;;8.57;;
48727;SDS011;34527;45.618;5.130;2022-10-31T01:47:07;23.58;;;9.52;;
48727;SDS011;34527;45.618;5.130;2022-10-31T01:49:41;22.77;;;8.50;;
48727;SDS011;34527;45.618;5.130;2022-10-31T01:52:31;20.63;;;8.70;;
48727;SDS011;34527;45.618;5.130;2022-10-31T01:57:31;18.48;;;8.00;;
48727;SDS011;34527;45.618;5.130;2022-10-31T01:59:59;22.55;;;9.20;;
48727;SDS011;34527;45.618;5.130;2022-10-31T02:02:29;15.10;;;8.57;;
48727;SDS011;34527;45.618;5.130;2022-10-31T02:04:56;24.40;;;8.38;;
48727;SDS011;34527;45.618;5.130;2022-10-31T02:07:27;20.63;;;8.35;;
48727;SDS011;34527;45.618;5.130;2022-10-31T02:10:04;28.40;;;8.48;;
48727;SDS011;34527;45.618;5.130;2022-10-31T02:12:31;24.10;;;8.50;;
48727;SDS011;34527;45.618;5.130;2022-10-31T02:14:58;17.38;;;7.78;;
48727;SDS011;34527;45.618;5.130;2022-10-31T02:17:25;14.20;;;7.57;;
48727;SDS011;34527;45.618;5.130;2022-10-31T02:19:52;21.98;;;8.82;;
48727;SDS011;34527;45.618;5.130;2022-10-31T02:36:40;19.17;;;8.57;;
48727;SDS011;34527;45.618;5.130;2022-10-31T02:39:22;16.42;;;8.85;;
48727;SDS011;34527;45.618;5.130;2022-10-31T02:41:52;21.60;;;8.93;;
48727;SDS011;34527;45.618;5.130;2022-10-31T02:47:12;21.48;;;8.43;;
48727;SDS011;34527;45.618;5.130;2022-10-31T02:54:52;26.60;;;8.73;;
48727;SDS011;34527;45.618;5.130;2022-10-31T02:57:25;16.58;;;8.77;;
48727;SDS011;34527;45.618;5.130;2022-10-31T02:59:56;22.38;;;9.20;;
48727;SDS011;34527;45.618;5.130;2022-10-31T03:05:34;22.38;;;9.32;;
48727;SDS011;34527;45.618;5.130;2022-10-31T03:08:33;19.90;;;9.48;;
48727;SDS011;34527;45.618;5.130;2022-10-31T03:11:09;24.35;;;9.85;;
48727;SDS011;34527;45.618;5.130;2022-10-31T03:13:51;23.65;;;10.10;;
48727;SDS011;34527;45.618;5.130;2022-10-31T03:16:44;17.50;;;8.87;;
48727;SDS011;34527;45.618;5.130;2022-10-31T03:19:33;17.95;;;9.55;;
48727;SDS011;34527;45.618;5.130;2022-10-31T03:22:21;17.83;;;9.15;;
48727;SDS011;34527;45.618;5.130;2022-10-31T03:24:49;23.45;;;9.25;;
48727;SDS011;34527;45.618;5.130;2022-10-31T03:27:18;20.27;;;9.98;;
48727;SDS011;34527;45.618;5.130;2022-10-31T03:29:48;26.40;;;10.10;;
48727;SDS011;34527;45.618;5.130;2022-10-31T03:32:19;20.05;;;10.00;;
48727;SDS011;34527;45.618;5.130;2022-10-31T03:34:49;15.98;;;10.13;;
48727;SDS011;34527;45.618;5.130;2022-10-31T03:37:20;19.23;;;9.73;;
48727;SDS011;34527;45.618;5.130;2022-10-31T03:39:49;20.25;;;9.40;;
48727;SDS011;34527;45.618;5.130;2022-10-31T03:42:18;21.27;;;9.75;;
48727;SDS011;34527;45.618;5.130;2022-10-31T03:44:53;17.27;;;9.48;;
48727;SDS011;34527;45.618;5.130;2022-10-31T03:47:29;22.52;;;10.15;;
48727;SDS011;34527;45.618;5.130;2022-10-31T03:49:55;23.10;;;10.10;;
48727;SDS011;34527;45.618;5.130;2022-10-31T03:52:29;21.98;;;10.35;;
48727;SDS011;34527;45.618;5.130;2022-10-31T03:55:07;20.05;;;9.68;;
48727;SDS011;34527;45.618;5.130;2022-10-31T04:00:22;17.73;;;8.95;;
48727;SDS011;34527;45.618;5.130;2022-10-31T04:02:53;30.83;;;10.07;;
48727;SDS011;34527;45.618;5.130;2022-10-31T04:05:41;22.42;;;9.52;;
48727;SDS011;34527;45.618;5.130;2022-10-31T04:08:11;27.35;;;10.57;;
48727;SDS011;34527;45.618;5.130;2022-10-31T04:10:42;25.33;;;9.43;;
48727;SDS011;34527;45.618;5.130;2022-10-31T04:13:13;21.05;;;9.88;;
48727;SDS011;34527;45.618;5.130;2022-10-31T04:15:42;18.17;;;9.75;;
48727;SDS011;34527;45.618;5.130;2022-10-31T04:18:09;24.02;;;10.25;;
48727;SDS011;34527;45.618;5.130;2022-10-31T04:20:37;17.77;;;9.52;;
48727;SDS011;34527;45.618;5.130;2022-10-31T04:23:04;28.75;;;10.50;;
48727;SDS011;34527;45.618;5.130;2022-10-31T04:25:36;16.40;;;8.70;;
48727;SDS011;34527;45.618;5.130;2022-10-31T04:28:02;26.40;;;10.10;;
48727;SDS011;34527;45.618;5.130;2022-10-31T04:30:28;20.48;;;9.52;;
48727;SDS011;34527;45.618;5.130;2022-10-31T04:32:54;19.58;;;9.40;;
48727;SDS011;34527;45.618;5.130;2022-10-31T04:35:19;21.65;;;9.38;;
48727;SDS011;34527;45.618;5.130;2022-10-31T04:37:45;20.35;;;10.13;;
48727;SDS011;34527;45.618;5.130;2022-10-31T04:40:11;23.20;;;10.13;;
48727;SDS011;34527;45.618;5.130;2022-10-31T04:42:37;20.15;;;9.93;;
48727;SDS011;34527;45.618;5.130;2022-10-31T04:45:03;22.45;;;9.43;;
48727;SDS011;34527;45.618;5.130;2022-10-31T04:47:30;17.83;;;9.23;;
48727;SDS011;34527;45.618;5.130;2022-10-31T04:49:57;21.77;;;9.80;;
48727;SDS011;34527;45.618;5.130;2022-10-31T04:52:23;23.02;;;10.05;;
48727;SDS011;34527;45.618;5.130;2022-10-31T04:54:49;21.13;;;8.98;;
48727;SDS011;34527;45.618;5.130;2022-10-31T04:57:15;22.30;;;9.68;;
48727;SDS011;34527;45.618;5.130;2022-10-31T04:59:40;19.85;;;10.02;;
48727;SDS011;34527;45.618;5.130;2022-10-31T05:02:06;19.80;;;9.45;;
48727;SDS011;34527;45.618;5.130;2022-10-31T05:04:32;23.00;;;9.85;;
48727;SDS011;34527;45.618;5.130;2022-10-31T05:06:58;24.27;;;10.30;;
48727;SDS011;34527;45.618;5.130;2022-10-31T05:09:24;25.70;;;9.55;;
48727;SDS011;34527;45.618;5.130;2022-10-31T05:11:50;21.60;;;10.10;;
48727;SDS011;34527;45.618;5.130;2022-10-31T05:14:15;25.00;;;10.60;;
48727;SDS011;34527;45.618;5.130;2022-10-31T05:16:41;22.00;;;10.05;;
48727;SDS011;34527;45.618;5.130;2022-10-31T05:19:07;21.52;;;9.68;;
48727;SDS011;34527;45.618;5.130;2022-10-31T05:21:33;24.63;;;10.25;;
48727;SDS011;34527;45.618;5.130;2022-10-31T05:23:59;22.50;;;10.38;;
48727;SDS011;34527;45.618;5.130;2022-10-31T05:26:24;20.48;;;9.75;;
48727;SDS011;34527;45.618;5.130;2022-10-31T05:28:50;24.63;;;11.25;;
48727;SDS011;34527;45.618;5.130;2022-10-31T05:31:16;25.08;;;11.00;;
48727;SDS011;34527;45.618;5.130;2022-10-31T05:33:42;22.42;;;10.68;;
48727;SDS011;34527;45.618;5.130;2022-10-31T05:36:08;22.92;;;10.57;;
48727;SDS011;34527;45.618;5.130;2022-10-31T05:38:34;23.30;;;10.18;;
48727;SDS011;34527;45.618;5.130;2022-10-31T05:40:59;23.55;;;10.13;;
48727;SDS011;34527;45.618;5.130;2022-10-31T05:43:26;29.92;;;11.20;;
48727;SDS011;34527;45.618;5.130;2022-10-31T05:45:52;18.67;;;10.32;;
48727;SDS011;34527;45.618;5.130;2022-10-31T05:48:19;17.63;;;10.05;;
48727;SDS011;34527;45.618;5.130;2022-10-31T05:50:46;20.05;;;10.35;;
48727;SDS011;34527;45.618;5.130;2022-10-31T05:53:13;17.50;;;10.25;;
48727;SDS011;34527;45.618;5.130;2022-10-31T05:55:39;21.67;;;10.63;;
48727;SDS011;34527;45.618;5.130;2022-10-31T05:58:09;22.92;;;10.63;;
48727;SDS011;34527;45.618;5.130;2022-10-31T06:00:35;22.13;;;10.25;;
48727;SDS011;34527;45.618;5.130;2022-10-31T06:03:08;22.15;;;10.98;;
48727;SDS011;34527;45.618;5.130;2022-10-31T06:05:34;19.73;;;10.27;;
48727;SDS011;34527;45.618;5.130;2022-10-31T06:08:00;22.15;;;10.45;;
48727;SDS011;34527;45.618;5.130;2022-10-31T06:10:26;23.75;;;10.32;;
48727;SDS011;34527;45.618;5.130;2022-10-31T06:12:53;19.23;;;10.27;;
48727;SDS011;34527;45.618;5.130;2022-10-31T06:15:19;21.08;;;10.70;;
48727;SDS011;34527;45.618;5.130;2022-10-31T06:17:46;20.45;;;10.13;;
48727;SDS011;34527;45.618;5.130;2022-10-31T06:20:11;23.88;;;11.40;;
48727;SDS011;34527;45.618;5.130;2022-10-31T06:22:37;21.02;;;10.60;;
48727;SDS011;34527;45.618;5.130;2022-10-31T06:25:03;23.10;;;10.27;;
48727;SDS011;34527;45.618;5.130;2022-10-31T06:27:29;20.48;;;10.15;;
48727;SDS011;34527;45.618;5.130;2022-10-31T06:29:55;22.35;;;10.75;;
48727;SDS011;34527;45.618;5.130;2022-10-31T06:32:21;21.35;;;10.73;;
48727;SDS011;34527;45.618;5.130;2022-10-31T06:34:47;23.88;;;10.25;;
48727;SDS011;34527;45.618;5.130;2022-10-31T06:37:13;18.33;;;10.23;;
48727;SDS011;34527;45.618;5.130;2022-10-31T06:39:39;22.05;;;11.50;;
48727;SDS011;34527;45.618;5.130;2022-10-31T06:42:05;19.90;;;10.77;;
48727;SDS011;34527;45.618;5.130;2022-10-31T06:44:31;17.95;;;11.20;;
48727;SDS011;34527;45.618;5.130;2022-10-31T06:46:57;29.52;;;11.07;;
48727;SDS011;34527;45.618;5.130;2022-10-31T06:49:23;20.48;;;10.63;;
48727;SDS011;34527;45.618;5.130;2022-10-31T06:51:50;26.17;;;10.98;;
48727;SDS011;34527;45.618;5.130;2022-10-31T06:54:16;19.00;;;10.77;;
48727;SDS011;34527;45.618;5.130;2022-10-31T06:56:42;26.23;;;11.95;;
48727;SDS011;34527;45.618;5.130;2022-10-31T06:59:10;25.75;;;11.68;;
48727;SDS011;34527;45.618;5.130;2022-10-31T07:01:36;27.75;;;11.45;;
48727;SDS011;34527;45.618;5.130;2022-10-31T07:04:02;18.70;;;10.52;;
48727;SDS011;34527;45.618;5.130;2022-10-31T07:06:28;19.38;;;9.98;;
48727;SDS011;34527;45.618;5.130;2022-10-31T07:08:54;20.65;;;11.30;;
48727;SDS011;34527;45.618;5.130;2022-10-31T07:11:19;22.20;;;11.43;;
48727;SDS011;34527;45.618;5.130;2022-10-31T07:13:45;17.25;;;11.50;;
48727;SDS011;34527;45.618;5.130;2022-10-31T07:16:11;22.98;;;12.18;;
48727;SDS011;34527;45.618;5.130;2022-10-31T07:18:38;23.25;;;11.20;;
48727;SDS011;34527;45.618;5.130;2022-10-31T07:21:04;17.45;;;10.68;;
48727;SDS011;34527;45.618;5.130;2022-10-31T07:23:30;23.80;;;11.48;;
48727;SDS011;34527;45.618;5.130;2022-10-31T07:25:57;20.30;;;10.90;;
48727;SDS011;34527;45.618;5.130;2022-10-31T07:28:24;24.98;;;11.00;;
48727;SDS011;34527;45.618;5.130;2022-10-31T07:30:55;19.98;;;11.15;;
48727;SDS011;34527;45.618;5.130;2022-10-31T07:33:22;25.27;;;12.55;;
48727;SDS011;34527;45.618;5.130;2022-10-31T07:35:51;19.10;;;10.93;;
48727;SDS011;34527;45.618;5.130;2022-10-31T07:38:17;24.08;;;10.65;;
48727;SDS011;34527;45.618;5.130;2022-10-31T07:40:43;22.00;;;11.43;;
48727;SDS011;34527;45.618;5.130;2022-10-31T07:43:11;21.00;;;10.73;;
48727;SDS011;34527;45.618;5.130;2022-10-31T07:45:37;17.67;;;10.50;;
48727;SDS011;34527;45.618;5.130;2022-10-31T07:48:03;23.20;;;10.50;;
48727;SDS011;34527;45.618;5.130;2022-10-31T07:50:30;19.55;;;10.25;;
48727;SDS011;34527;45.618;5.130;2022-10-31T07:52:59;21.60;;;10.55;;
48727;SDS011;34527;45.618;5.130;2022-10-31T07:55:30;21.95;;;10.38;;
48727;SDS011;34527;45.618;5.130;2022-10-31T07:58:02;18.40;;;9.23;;
48727;SDS011;34527;45.618;5.130;2022-10-31T08:00:34;20.48;;;10.45;;
48727;SDS011;34527;45.618;5.130;2022-10-31T08:03:05;20.73;;;10.13;;
48727;SDS011;34527;45.618;5.130;2022-10-31T08:05:38;23.35;;;8.93;;
48727;SDS011;34527;45.618;5.130;2022-10-31T08:08:06;18.80;;;9.18;;
48727;SDS011;34527;45.618;5.130;2022-10-31T08:10:32;17.67;;;8.40;;
48727;SDS011;34527;45.618;5.130;2022-10-31T08:13:05;17.23;;;8.85;;
48727;SDS011;34527;45.618;5.130;2022-10-31T08:15:33;22.30;;;9.40;;
48727;SDS011;34527;45.618;5.130;2022-10-31T08:18:02;15.40;;;8.43;;
48727;SDS011;34527;45.618;5.130;2022-10-31T08:20:28;18.75;;;10.45;;
48727;SDS011;34527;45.618;5.130;2022-10-31T08:25:21;20.25;;;10.30;;
48727;SDS011;34527;45.618;5.130;2022-10-31T08:27:51;19.55;;;8.85;;
48727;SDS011;34527;45.618;5.130;2022-10-31T08:30:18;19.83;;;9.63;;
48727;SDS011;34527;45.618;5.130;2022-10-31T08:32:45;20.17;;;8.68;;
48727;SDS011;34527;45.618;5.130;2022-10-31T08:35:11;22.10;;;9.68;;
48727;SDS011;34527;45.618;5.130;2022-10-31T08:37:37;20.20;;;8.77;;
48727;SDS011;34527;45.618;5.130;2022-10-31T08:40:03;19.48;;;9.20;;
48727;SDS011;34527;45.618;5.130;2022-10-31T08:42:31;18.88;;;9.65;;
48727;SDS011;34527;45.618;5.130;2022-10-31T08:44:57;16.83;;;9.63;;
48727;SDS011;34527;45.618;5.130;2022-10-31T08:47:23;19.17;;;8.50;;
48727;SDS011;34527;45.618;5.130;2022-10-31T08:49:49;18.45;;;8.48;;
48727;SDS011;34527;45.618;5.130;2022-10-31T08:52:15;22.65;;;9.07;;
48727;SDS011;34527;45.618;5.130;2022-10-31T08:54:41;16.48;;;7.47;;
48727;SDS011;34527;45.618;5.130;2022-10-31T08:57:06;20.50;;;8.80;;
48727;SDS011;34527;45.618;5.130;2022-10-31T08:59:32;21.08;;;7.78;;
48727;SDS011;34527;45.618;5.130;2022-10-31T09:01:58;23.95;;;7.95;;
48727;SDS011;34527;45.618;5.130;2022-10-31T09:04:24;18.10;;;7.57;;
48727;SDS011;34527;45.618;5.130;2022-10-31T09:06:50;22.05;;;7.78;;
48727;SDS011;34527;45.618;5.130;2022-10-31T09:09:16;20.13;;;8.13;;
48727;SDS011;34527;45.618;5.130;2022-10-31T09:11:41;16.23;;;7.88;;
48727;SDS011;34527;45.618;5.130;2022-10-31T09:14:07;16.02;;;7.80;;
48727;SDS011;34527;45.618;5.130;2022-10-31T09:16:33;18.10;;;7.78;;
48727;SDS011;34527;45.618;5.130;2022-10-31T09:18:59;17.27;;;7.95;;
48727;SDS011;34527;45.618;5.130;2022-10-31T09:21:25;16.38;;;7.57;;
48727;SDS011;34527;45.618;5.130;2022-10-31T09:23:50;14.23;;;7.60;;
48727;SDS011;34527;45.618;5.130;2022-10-31T09:26:18;20.70;;;7.82;;
48727;SDS011;34527;45.618;5.130;2022-10-31T09:28:44;19.35;;;7.53;;
48727;SDS011;34527;45.618;5.130;2022-10-31T09:31:11;21.00;;;7.90;;
48727;SDS011;34527;45.618;5.130;2022-10-31T09:33:37;20.77;;;7.72;;
48727;SDS011;34527;45.618;5.130;2022-10-31T09:36:03;17.52;;;7.28;;
48727;SDS011;34527;45.618;5.130;2022-10-31T09:38:29;19.45;;;7.15;;
48727;SDS011;34527;45.618;5.130;2022-10-31T09:40:57;18.92;;;7.43;;
48727;SDS011;34527;45.618;5.130;2022-10-31T09:49:21;19.98;;;7.75;;
48727;SDS011;34527;45.618;5.130;2022-10-31T09:52:11;20.17;;;6.95;;
48727;SDS011;34527;45.618;5.130;2022-10-31T09:55:00;19.20;;;6.65;;
48727;SDS011;34527;45.618;5.130;2022-10-31T09:57:35;21.73;;;7.75;;
48727;SDS011;34527;45.618;5.130;2022-10-31T10:00:06;22.98;;;7.18;;
48727;SDS011;34527;45.618;5.130;2022-10-31T10:02:40;19.10;;;7.35;;
48727;SDS011;34527;45.618;5.130;2022-10-31T10:05:13;19.92;;;6.40;;
48727;SDS011;34527;45.618;5.130;2022-10-31T10:18:29;16.15;;;6.50;;
48727;SDS011;34527;45.618;5.130;2022-10-31T10:24:32;20.13;;;6.00;;
48727;SDS011;34527;45.618;5.130;2022-10-31T10:32:26;16.95;;;5.82;;
48727;SDS011;34527;45.618;5.130;2022-10-31T10:34:56;14.05;;;5.55;;
48727;SDS011;34527;45.618;5.130;2022-10-31T10:37:39;15.40;;;6.05;;
48727;SDS011;34527;45.618;5.130;2022-10-31T10:40:15;15.50;;;5.90;;
48727;SDS011;34527;45.618;5.130;2022-10-31T10:42:45;20.50;;;6.80;;
48727;SDS011;34527;45.618;5.130;2022-10-31T10:45:41;16.67;;;5.80;;
48727;SDS011;34527;45.618;5.130;2022-10-31T10:48:44;19.73;;;6.55;;
48727;SDS011;34527;45.618;5.130;2022-10-31T10:51:24;15.43;;;5.90;;
48727;SDS011;34527;45.618;5.130;2022-10-31T10:59:32;12.10;;;5.43;;
48727;SDS011;34527;45.618;5.130;2022-10-31T11:01:59;16.77;;;5.30;;
48727;SDS011;34527;45.618;5.130;2022-10-31T11:04:29;15.25;;;5.70;;
48727;SDS011;34527;45.618;5.130;2022-10-31T11:06:58;15.25;;;5.38;;
48727;SDS011;34527;45.618;5.130;2022-10-31T11:09:28;13.15;;;5.60;;
48727;SDS011;34527;45.618;5.130;2022-10-31T11:11:54;15.10;;;5.25;;
48727;SDS011;34527;45.618;5.130;2022-10-31T11:14:21;14.90;;;5.40;;
48727;SDS011;34527;45.618;5.130;2022-10-31T11:16:52;15.13;;;5.20;;
48727;SDS011;34527;45.618;5.130;2022-10-31T11:19:21;16.63;;;5.10;;
48727;SDS011;34527;45.618;5.130;2022-10-31T11:21:51;12.45;;;5.07;;
48727;SDS011;34527;45.618;5.130;2022-10-31T11:24:18;21.05;;;5.70;;
48727;SDS011;34527;45.618;5.130;2022-10-31T11:26:51;15.02;;;5.65;;
48727;SDS011;34527;45.618;5.130;2022-10-31T11:29:27;15.93;;;5.53;;
48727;SDS011;34527;45.618;5.130;2022-10-31T11:31:54;16.08;;;4.78;;
48727;SDS011;34527;45.618;5.130;2022-10-31T11:36:56;16.38;;;4.82;;
48727;SDS011;34527;45.618;5.130;2022-10-31T11:39:28;16.88;;;5.20;;
48727;SDS011;34527;45.618;5.130;2022-10-31T11:41:54;18.63;;;6.18;;
48727;SDS011;34527;45.618;5.130;2022-10-31T11:46:52;17.00;;;5.15;;
48727;SDS011;34527;45.618;5.130;2022-10-31T11:49:31;14.52;;;5.35;;
48727;SDS011;34527;45.618;5.130;2022-10-31T11:51:59;10.73;;;4.80;;
48727;SDS011;34527;45.618;5.130;2022-10-31T11:54:50;13.23;;;4.95;;
48727;SDS011;34527;45.618;5.130;2022-10-31T11:57:29;18.40;;;4.78;;
48727;SDS011;34527;45.618;5.130;2022-10-31T12:00:02;16.35;;;4.68;;
48727;SDS011;34527;45.618;5.130;2022-10-31T12:02:29;15.82;;;5.15;;
48727;SDS011;34527;45.618;5.130;2022-10-31T12:07:31;15.55;;;5.75;;
48727;SDS011;34527;45.618;5.130;2022-10-31T12:09:57;15.00;;;4.80;;
48727;SDS011;34527;45.618;5.130;2022-10-31T12:12:26;14.35;;;5.13;;
48727;SDS011;34527;45.618;5.130;2022-10-31T12:18:17;17.25;;;5.25;;
48727;SDS011;34527;45.618;5.130;2022-10-31T12:28:38;12.80;;;4.85;;
48727;SDS011;34527;45.618;5.130;2022-10-31T12:34:25;18.35;;;4.85;;
48727;SDS011;34527;45.618;5.130;2022-10-31T12:46:07;13.98;;;4.50;;
48727;SDS011;34527;45.618;5.130;2022-10-31T12:57:35;10.13;;;4.95;;
48727;SDS011;34527;45.618;5.130;2022-10-31T13:00:12;18.60;;;5.13;;
48727;SDS011;34527;45.618;5.130;2022-10-31T13:02:48;15.45;;;4.53;;
48727;SDS011;34527;45.618;5.130;2022-10-31T13:05:31;11.68;;;4.20;;
48727;SDS011;34527;45.618;5.130;2022-10-31T13:08:09;13.18;;;5.30;;
48727;SDS011;34527;45.618;5.130;2022-10-31T13:10:37;14.90;;;4.88;;
48727;SDS011;34527;45.618;5.130;2022-10-31T13:13:15;13.70;;;4.32;;
48727;SDS011;34527;45.618;5.130;2022-10-31T13:21:23;13.98;;;4.13;;
48727;SDS011;34527;45.618;5.130;2022-10-31T13:23:54;10.38;;;4.00;;
48727;SDS011;34527;45.618;5.130;2022-10-31T13:29:17;12.48;;;4.28;;
48727;SDS011;34527;45.618;5.130;2022-10-31T13:31:47;11.88;;;4.15;;
48727;SDS011;34527;45.618;5.130;2022-10-31T13:34:32;13.60;;;4.40;;
48727;SDS011;34527;45.618;5.130;2022-10-31T13:37:02;13.20;;;4.18;;
48727;SDS011;34527;45.618;5.130;2022-10-31T13:39:55;12.60;;;3.90;;
48727;SDS011;34527;45.618;5.130;2022-10-31T13:45:10;16.20;;;3.50;;
48727;SDS011;34527;45.618;5.130;2022-10-31T13:47:37;12.48;;;4.00;;
48727;SDS011;34527;45.618;5.130;2022-10-31T13:50:14;13.52;;;4.80;;
48727;SDS011;34527;45.618;5.130;2022-10-31T13:52:48;14.77;;;3.78;;
48727;SDS011;34527;45.618;5.130;2022-10-31T13:58:05;12.77;;;3.72;;
48727;SDS011;34527;45.618;5.130;2022-10-31T14:00:58;11.73;;;4.00;;
48727;SDS011;34527;45.618;5.130;2022-10-31T14:03:40;8.07;;;3.53;;
48727;SDS011;34527;45.618;5.130;2022-10-31T14:06:08;11.43;;;3.30;;
48727;SDS011;34527;45.618;5.130;2022-10-31T14:08:37;11.50;;;3.80;;
48727;SDS011;34527;45.618;5.130;2022-10-31T14:11:08;11.35;;;4.03;;
48727;SDS011;34527;45.618;5.130;2022-10-31T14:13:52;10.48;;;3.80;;
48727;SDS011;34527;45.618;5.130;2022-10-31T14:16:20;8.63;;;3.83;;
48727;SDS011;34527;45.618;5.130;2022-10-31T14:18:57;9.30;;;3.30;;
48727;SDS011;34527;45.618;5.130;2022-10-31T14:21:27;13.10;;;3.40;;
48727;SDS011;34527;45.618;5.130;2022-10-31T14:23:55;8.70;;;3.00;;
48727;SDS011;34527;45.618;5.130;2022-10-31T14:28:52;14.13;;;3.38;;
48727;SDS011;34527;45.618;5.130;2022-10-31T14:31:27;7.28;;;3.10;;
48727;SDS011;34527;45.618;5.130;2022-10-31T14:34:01;8.95;;;3.33;;
48727;SDS011;34527;45.618;5.130;2022-10-31T14:39:45;16.23;;;3.50;;
48727;SDS011;34527;45.618;5.130;2022-10-31T14:51:02;12.18;;;4.35;;
48727;SDS011;34527;45.618;5.130;2022-10-31T14:53:36;11.25;;;3.85;;
48727;SDS011;34527;45.618;5.130;2022-10-31T14:56:16;7.82;;;3.63;;
48727;SDS011;34527;45.618;5.130;2022-10-31T14:58:56;12.07;;;3.67;;
48727;SDS011;34527;45.618;5.130;2022-10-31T15:01:27;10.88;;;3.70;;
48727;SDS011;34527;45.618;5.130;2022-10-31T15:04:20;14.43;;;3.70;;
48727;SDS011;34527;45.618;5.130;2022-10-31T15:06:50;19.38;;;4.22;;
48727;SDS011;34527;45.618;5.130;2022-10-31T15:09:23;11.25;;;4.60;;
48727;SDS011;34527;45.618;5.130;2022-10-31T15:11:51;10.55;;;3.50;;
48727;SDS011;34527;45.618;5.130;2022-10-31T15:14:24;15.02;;;4.00;;
48727;SDS011;34527;45.618;5.130;2022-10-31T15:16:55;9.55;;;3.88;;
48727;SDS011;34527;45.618;5.130;2022-10-31T15:19:23;10.10;;;4.07;;
48727;SDS011;34527;45.618;5.130;2022-10-31T15:21:52;11.18;;;3.83;;
48727;SDS011;34527;45.618;5.130;2022-10-31T15:24:19;11.30;;;3.97;;
48727;SDS011;34527;45.618;5.130;2022-10-31T15:26:49;16.70;;;4.03;;
48727;SDS011;34527;45.618;5.130;2022-10-31T15:29:18;11.32;;;3.70;;
48727;SDS011;34527;45.618;5.130;2022-10-31T15:31:49;11.80;;;3.72;;
48727;SDS011;34527;45.618;5.130;2022-10-31T15:34:25;11.90;;;4.05;;
48727;SDS011;34527;45.618;5.130;2022-10-31T15:37:01;9.02;;;3.67;;
48727;SDS011;34527;45.618;5.130;2022-10-31T15:39:27;10.75;;;3.60;;
48727;SDS011;34527;45.618;5.130;2022-10-31T15:41:53;15.52;;;4.40;;
48727;SDS011;34527;45.618;5.130;2022-10-31T15:44:24;11.20;;;4.07;;
48727;SDS011;34527;45.618;5.130;2022-10-31T15:47:05;14.95;;;4.00;;
48727;SDS011;34527;45.618;5.130;2022-10-31T15:49:47;13.32;;;4.15;;
48727;SDS011;34527;45.618;5.130;2022-10-31T15:52:24;15.20;;;5.07;;
48727;SDS011;34527;45.618;5.130;2022-10-31T15:55:00;11.50;;;4.10;;
48727;SDS011;34527;45.618;5.130;2022-10-31T15:57:42;12.70;;;3.95;;
48727;SDS011;34527;45.618;5.130;2022-10-31T16:00:23;15.18;;;4.03;;
48727;SDS011;34527;45.618;5.130;2022-10-31T16:03:03;11.23;;;4.03;;
48727;SDS011;34527;45.618;5.130;2022-10-31T16:05:38;13.30;;;4.20;;
48727;SDS011;34527;45.618;5.130;2022-10-31T16:08:22;13.68;;;4.00;;
48727;SDS011;34527;45.618;5.130;2022-10-31T16:10:55;18.30;;;4.50;;
48727;SDS011;34527;45.618;5.130;2022-10-31T16:13:52;10.57;;;4.55;;
48727;SDS011;34527;45.618;5.130;2022-10-31T16:16:31;17.98;;;4.28;;
48727;SDS011;34527;45.618;5.130;2022-10-31T16:18:59;11.10;;;4.53;;
48727;SDS011;34527;45.618;5.130;2022-10-31T16:21:31;14.70;;;4.82;;
48727;SDS011;34527;45.618;5.130;2022-10-31T16:24:11;13.60;;;4.57;;
48727;SDS011;34527;45.618;5.130;2022-10-31T16:27:03;15.00;;;4.25;;
48727;SDS011;34527;45.618;5.130;2022-10-31T16:34:59;13.32;;;4.22;;
48727;SDS011;34527;45.618;5.130;2022-10-31T16:37:26;12.40;;;4.32;;
48727;SDS011;34527;45.618;5.130;2022-10-31T16:39:52;13.82;;;4.97;;
48727;SDS011;34527;45.618;5.130;2022-10-31T16:42:18;20.00;;;4.80;;
48727;SDS011;34527;45.618;5.130;2022-10-31T16:44:44;13.93;;;4.60;;
48727;SDS011;34527;45.618;5.130;2022-10-31T16:47:13;12.13;;;4.45;;
48727;SDS011;34527;45.618;5.130;2022-10-31T16:49:41;20.73;;;5.68;;
48727;SDS011;34527;45.618;5.130;2022-10-31T16:52:08;10.43;;;4.57;;
48727;SDS011;34527;45.618;5.130;2022-10-31T16:54:34;16.85;;;4.80;;
48727;SDS011;34527;45.618;5.130;2022-10-31T16:57:00;14.85;;;4.35;;
48727;SDS011;34527;45.618;5.130;2022-10-31T16:59:28;14.43;;;4.85;;
48727;SDS011;34527;45.618;5.130;2022-10-31T17:01:56;12.40;;;4.57;;
48727;SDS011;34527;45.618;5.130;2022-10-31T17:04:22;13.07;;;5.13;;
48727;SDS011;34527;45.618;5.130;2022-10-31T17:06:47;10.27;;;4.38;;
48727;SDS011;34527;45.618;5.130;2022-10-31T17:09:13;17.00;;;5.18;;